createdAt,value
2023-01-19T00:01:33.230Z,94835.78
2023-01-19T00:04:06.918Z,94833.19
2023-01-19T00:06:34.886Z,94836.25
2023-01-19T00:09:03.011Z,94834.56
2023-01-19T00:11:30.991Z,94847.81
2023-01-19T00:13:58.851Z,94850.56
2023-01-19T00:16:28.195Z,94848.75
2023-01-19T00:18:56.425Z,94850.50
2023-01-19T00:21:24.672Z,94854.50
2023-01-19T00:23:52.820Z,94852.25
2023-01-19T00:26:22.355Z,94856.34
2023-01-19T00:28:50.998Z,94861.50
2023-01-19T00:31:21.585Z,94857.72
2023-01-19T00:33:52.742Z,94868.56
2023-01-19T00:36:21.048Z,94858.88
2023-01-19T00:38:49.021Z,94858.97
2023-01-19T00:41:17.181Z,94863.84
2023-01-19T00:43:44.067Z,94856.84
2023-01-19T00:46:12.161Z,94864.31
2023-01-19T00:48:40.106Z,94872.31
2023-01-19T00:51:09.354Z,94877.91
2023-01-19T00:53:37.183Z,94883.00
2023-01-19T00:56:07.137Z,94878.34
2023-01-19T00:58:35.016Z,94873.09
2023-01-19T01:01:04.810Z,94886.97
2023-01-19T01:03:33.238Z,94886.91
2023-01-19T01:06:01.590Z,94887.31
2023-01-19T01:08:30.978Z,94895.44
2023-01-19T01:10:58.879Z,94890.25
2023-01-19T01:13:28.109Z,94888.00
2023-01-19T01:15:57.717Z,94902.69
2023-01-19T01:18:26.287Z,94909.69
2023-01-19T01:20:56.215Z,94910.59
2023-01-19T01:23:24.285Z,94909.16
2023-01-19T01:25:53.768Z,94911.56
2023-01-19T01:28:21.785Z,94914.63
2023-01-19T01:30:53.828Z,94910.78
2023-01-19T01:33:39.956Z,94911.56
2023-01-19T01:36:09.873Z,94917.91
2023-01-19T01:38:38.977Z,94918.31
2023-01-19T01:41:09.778Z,94921.03
2023-01-19T01:43:47.791Z,94920.69
2023-01-19T01:46:17.411Z,94926.06
2023-01-19T01:48:53.131Z,94922.19
2023-01-19T01:51:29.392Z,94919.50
2023-01-19T01:54:14.072Z,94936.09
2023-01-19T01:57:00.687Z,94930.03
2023-01-19T01:59:39.002Z,94924.16
2023-01-19T02:02:28.734Z,94937.69
2023-01-19T02:05:04.263Z,94925.69
2023-01-19T02:07:58.980Z,94932.59
2023-01-19T02:10:44.423Z,94927.41
2023-01-19T02:13:23.560Z,94926.84
2023-01-19T02:15:53.725Z,94940.88
2023-01-19T02:18:24.268Z,94948.53
2023-01-19T02:21:04.746Z,94938.16
2023-01-19T02:23:53.483Z,94944.25
2023-01-19T02:26:25.190Z,94948.75
2023-01-19T02:28:58.399Z,94951.47
2023-01-19T02:31:30.807Z,94952.94
2023-01-19T02:34:00.835Z,94953.50
2023-01-19T02:36:36.959Z,94960.16
2023-01-19T02:39:09.661Z,94961.28
2023-01-19T02:44:35.549Z,94962.53
2023-01-19T02:47:04.175Z,94956.69
2023-01-19T02:49:34.236Z,94956.22
2023-01-19T02:52:04.245Z,94959.13
2023-01-19T02:54:49.609Z,94965.22
2023-01-19T02:57:43.610Z,94963.88
2023-01-19T03:00:28.085Z,94963.97
2023-01-19T03:03:16.351Z,94961.59
2023-01-19T03:05:57.167Z,94960.69
2023-01-19T03:08:36.966Z,94966.53
2023-01-19T03:11:09.817Z,94972.19
2023-01-19T03:13:46.787Z,94979.53
2023-01-19T03:16:22.655Z,94972.19
2023-01-19T03:18:54.957Z,94975.09
2023-01-19T03:21:29.596Z,94978.75
2023-01-19T03:24:03.530Z,94967.84
2023-01-19T03:26:40.137Z,94966.94
2023-01-19T03:29:12.176Z,94975.84
2023-01-19T03:31:45.995Z,94973.44
2023-01-19T03:34:17.976Z,94969.66
2023-01-19T03:36:54.239Z,94975.56
2023-01-19T03:39:24.472Z,94972.00
2023-01-19T03:41:59.727Z,94973.41
2023-01-19T03:44:31.342Z,94980.25
2023-01-19T03:47:00.940Z,94974.38
2023-01-19T03:49:32.359Z,94971.44
2023-01-19T03:52:00.852Z,94976.16
2023-01-19T03:54:29.281Z,94972.31
2023-01-19T03:56:58.528Z,94976.53
2023-01-19T03:59:26.529Z,94985.69
2023-01-19T04:01:54.744Z,94987.16
2023-01-19T04:04:25.663Z,94981.16
2023-01-19T04:07:21.928Z,94992.91
2023-01-19T04:09:53.139Z,94976.63
2023-01-19T04:12:22.647Z,94987.38
2023-01-19T04:14:50.780Z,94973.41
2023-01-19T04:17:19.008Z,94978.69
2023-01-19T04:19:46.903Z,94984.25
2023-01-19T04:22:17.054Z,94976.59
2023-01-19T04:25:11.088Z,94963.13
2023-01-19T04:27:40.362Z,94981.78
2023-01-19T04:30:10.018Z,94974.66
2023-01-19T04:32:38.272Z,94981.63
2023-01-19T04:35:07.045Z,94982.44
2023-01-19T04:37:34.998Z,94990.94
2023-01-19T04:40:02.973Z,94989.44
2023-01-19T04:42:30.908Z,94978.69
2023-01-19T04:45:00.172Z,94988.19
2023-01-19T04:47:28.082Z,94971.72
2023-01-19T04:49:56.058Z,94974.28
2023-01-19T04:52:24.045Z,94976.22
2023-01-19T04:54:52.098Z,94986.16
2023-01-19T04:57:19.985Z,94988.22
2023-01-19T05:00:00.731Z,94985.75
2023-01-19T05:02:30.033Z,94987.19
2023-01-19T05:04:57.941Z,94999.72
2023-01-19T05:07:25.938Z,94999.41
2023-01-19T05:09:53.945Z,95001.88
2023-01-19T05:12:22.439Z,94999.03
2023-01-19T05:14:50.578Z,95002.28
2023-01-19T05:17:18.462Z,95009.50
2023-01-19T05:19:47.851Z,95009.59
2023-01-19T05:22:16.689Z,94999.63
2023-01-19T05:24:44.673Z,95003.50
2023-01-19T05:27:13.278Z,95006.31
2023-01-19T05:29:41.203Z,95006.88
2023-01-19T05:32:09.118Z,95025.88
2023-01-19T05:34:37.130Z,95021.84
2023-01-19T05:37:06.565Z,95021.59
2023-01-19T05:39:34.695Z,95023.31
2023-01-19T05:42:02.597Z,95024.25
2023-01-19T05:44:30.511Z,95015.66
2023-01-19T05:46:58.513Z,95013.50
2023-01-19T05:49:26.481Z,95023.81
2023-01-19T05:51:54.443Z,95021.19
2023-01-19T05:54:23.933Z,95015.22
2023-01-19T05:56:51.850Z,95024.81
2023-01-19T05:59:24.119Z,95029.78
2023-01-19T06:01:52.395Z,95024.56
2023-01-19T06:04:21.249Z,95027.41
2023-01-19T06:06:49.548Z,95025.94
2023-01-19T06:09:18.256Z,95022.88
2023-01-19T06:11:48.429Z,95028.66
2023-01-19T06:14:16.384Z,95036.34
2023-01-19T06:16:44.348Z,95032.63
2023-01-19T06:19:12.552Z,95037.81
2023-01-19T06:21:40.785Z,95040.63
2023-01-19T06:24:08.968Z,95035.09
2023-01-19T06:26:37.433Z,95038.81
2023-01-19T06:29:06.709Z,95041.75
2023-01-19T06:31:34.708Z,95037.13
2023-01-19T06:34:03.002Z,95048.75
2023-01-19T06:36:31.192Z,95049.31
2023-01-19T06:38:59.203Z,95045.38
2023-01-19T06:41:27.096Z,95046.69
2023-01-19T06:43:55.047Z,95046.47
2023-01-19T06:46:24.343Z,95041.97
2023-01-19T06:48:52.238Z,95049.53
2023-01-19T06:51:21.574Z,95051.00
2023-01-19T06:53:49.510Z,95060.59
2023-01-19T06:56:17.409Z,95051.91
2023-01-19T06:58:47.610Z,95064.78
2023-01-19T07:01:16.028Z,95064.09
2023-01-19T07:03:46.882Z,95062.88
2023-01-19T07:06:14.938Z,95070.91
2023-01-19T07:08:42.859Z,95065.91
2023-01-19T07:11:24.658Z,95075.63
2023-01-19T07:13:57.625Z,95072.81
2023-01-19T07:16:25.663Z,95072.91
2023-01-19T07:18:54.973Z,95073.16
2023-01-19T07:21:23.716Z,95076.97
2023-01-19T07:23:52.716Z,95087.00
2023-01-19T07:26:22.049Z,95091.41
2023-01-19T07:28:50.465Z,95097.50
2023-01-19T07:31:19.510Z,95095.25
2023-01-19T07:33:48.491Z,95099.69
2023-01-19T07:36:17.771Z,95084.69
2023-01-19T07:38:45.662Z,95093.03
2023-01-19T07:41:13.946Z,95094.38
2023-01-19T07:43:41.864Z,95104.31
2023-01-19T07:46:09.894Z,95102.94
2023-01-19T07:48:37.792Z,95114.94
2023-01-19T07:51:10.459Z,95098.22
2023-01-19T07:53:41.925Z,95100.00
2023-01-19T07:56:10.241Z,95110.41
2023-01-19T07:58:38.344Z,95108.34
2023-01-19T08:01:08.267Z,95111.53
2023-01-19T08:03:36.211Z,95113.09
2023-01-19T08:06:05.147Z,95118.97
2023-01-19T08:08:34.706Z,95111.53
2023-01-19T08:11:03.939Z,95112.28
2023-01-19T08:13:31.847Z,95113.22
2023-01-19T08:15:59.813Z,95112.44
2023-01-19T08:18:27.722Z,95113.38
2023-01-19T08:20:55.657Z,95112.56
2023-01-19T08:23:23.671Z,95126.91
2023-01-19T08:25:51.497Z,95133.56
2023-01-19T08:28:21.033Z,95135.63
2023-01-19T08:30:54.170Z,95133.91
2023-01-19T08:33:23.389Z,95133.47
2023-01-19T08:35:54.629Z,95137.63
2023-01-19T08:38:22.832Z,95154.72
2023-01-19T08:40:50.765Z,95143.16
2023-01-19T08:43:20.605Z,95149.94
2023-01-19T08:45:53.478Z,95150.31
2023-01-19T08:48:23.562Z,95156.38
2023-01-19T08:50:53.135Z,95157.75
2023-01-19T08:53:23.539Z,95156.84
2023-01-19T08:55:57.336Z,95155.13
2023-01-19T08:58:26.658Z,95155.56
2023-01-19T09:00:54.766Z,95155.34
2023-01-19T09:03:23.605Z,95165.53
2023-01-19T09:05:51.785Z,95169.63
2023-01-19T09:08:19.683Z,95174.00
2023-01-19T09:10:50.462Z,95169.63
2023-01-19T09:13:21.606Z,95174.69
2023-01-19T09:15:50.933Z,95168.66
2023-01-19T09:18:21.072Z,95175.22
2023-01-19T09:20:50.583Z,95169.00
2023-01-19T09:23:20.256Z,95166.81
2023-01-19T09:25:48.885Z,95167.84
2023-01-19T09:28:18.588Z,95165.47
2023-01-19T09:30:46.639Z,95169.81
2023-01-19T09:33:17.935Z,95176.47
2023-01-19T09:35:47.747Z,95175.75
2023-01-19T09:38:17.585Z,95176.75
2023-01-19T09:40:49.336Z,95188.28
2023-01-19T09:43:30.972Z,95179.91
2023-01-19T09:46:00.937Z,95174.75
2023-01-19T09:48:45.822Z,95179.00
2023-01-19T09:51:18.665Z,95171.56
2023-01-19T09:53:56.994Z,95170.00
2023-01-19T09:56:26.101Z,95165.78
2023-01-19T09:58:54.171Z,95165.78
2023-01-19T10:01:37.751Z,95168.38
2023-01-19T10:04:32.179Z,95164.03
2023-01-19T10:07:19.332Z,95158.66
2023-01-19T10:10:06.017Z,95150.78
2023-01-19T10:12:53.454Z,95163.13
2023-01-19T10:15:33.888Z,95150.28
2023-01-19T10:18:13.759Z,95150.66
2023-01-19T10:20:49.104Z,95151.78
2023-01-19T10:23:36.660Z,95159.59
2023-01-19T10:26:10.913Z,95147.63
2023-01-19T10:28:40.940Z,95153.78
2023-01-19T10:31:10.153Z,95151.94
2023-01-19T10:33:39.533Z,95145.53
2023-01-19T10:36:19.219Z,95145.06
2023-01-19T10:38:48.787Z,95136.81
2023-01-19T10:41:22.294Z,95147.16
2023-01-19T10:43:51.010Z,95150.59
2023-01-19T10:46:26.925Z,95148.50
2023-01-19T10:48:56.322Z,95149.97
2023-01-19T10:51:25.914Z,95158.56
2023-01-19T10:54:00.660Z,95148.31
2023-01-19T10:56:33.653Z,95161.63
2023-01-19T10:59:04.391Z,95148.75
2023-01-19T11:01:36.843Z,95156.97
2023-01-19T11:04:23.620Z,95158.91
2023-01-19T11:06:52.863Z,95154.28
2023-01-19T11:09:23.556Z,95153.75
2023-01-19T11:11:54.342Z,95150.66
2023-01-19T11:14:25.620Z,95150.84
2023-01-19T11:16:57.246Z,95148.13
2023-01-19T11:19:29.912Z,95141.66
2023-01-19T11:22:26.954Z,95141.94
2023-01-19T11:24:59.977Z,95141.72
2023-01-19T11:27:29.483Z,95152.09
2023-01-19T11:30:09.731Z,95133.66
2023-01-19T11:32:37.959Z,95152.34
2023-01-19T11:35:34.712Z,95147.09
2023-01-19T11:38:27.191Z,95151.28
2023-01-19T11:40:57.592Z,95147.25
2023-01-19T11:43:47.480Z,95145.44
2023-01-19T11:46:17.750Z,95147.00
2023-01-19T11:48:56.672Z,95136.41
2023-01-19T11:51:31.507Z,95144.34
2023-01-19T11:54:07.895Z,95141.56
2023-01-19T11:56:36.218Z,95132.88
2023-01-19T11:59:04.963Z,95140.50
2023-01-19T12:01:37.729Z,95132.59
2023-01-19T12:04:14.303Z,95126.53
2023-01-19T12:06:47.730Z,95124.78
2023-01-19T12:09:23.148Z,95129.91
2023-01-19T12:11:58.328Z,95124.16
2023-01-19T12:14:37.364Z,95124.97
2023-01-19T12:17:13.897Z,95123.91
2023-01-19T12:19:50.518Z,95134.38
2023-01-19T12:22:21.408Z,95122.16
2023-01-19T12:24:59.513Z,95133.22
2023-01-19T12:27:40.887Z,95131.66
2023-01-19T12:30:20.094Z,95119.97
2023-01-19T12:32:48.204Z,95108.31
2023-01-19T12:35:53.721Z,95109.63
2023-01-19T12:38:39.945Z,95118.41
2023-01-19T12:41:25.413Z,95107.16
2023-01-19T12:44:22.302Z,95094.78
2023-01-19T12:46:55.071Z,95098.66
2023-01-19T12:49:28.510Z,95105.56
2023-01-19T12:52:14.350Z,95106.69
2023-01-19T12:54:50.975Z,95103.97
2023-01-19T12:57:25.100Z,95103.78
2023-01-19T12:59:58.824Z,95112.38
2023-01-19T13:02:45.342Z,95099.94
2023-01-19T13:05:19.127Z,95116.31
2023-01-19T13:08:34.815Z,95110.16
2023-01-19T13:11:20.887Z,95107.69
2023-01-19T13:14:25.380Z,95108.25
2023-01-19T13:17:28.871Z,95112.28
2023-01-19T13:20:36.083Z,95106.28
2023-01-19T13:23:20.734Z,95109.84
2023-01-19T13:25:59.920Z,95101.75
2023-01-19T13:28:34.994Z,95110.88
2023-01-19T13:31:05.067Z,95102.59
2023-01-19T13:33:48.679Z,95114.28
2023-01-19T13:36:24.008Z,95106.78
2023-01-19T13:38:53.437Z,95108.41
2023-01-19T13:41:25.683Z,95107.63
2023-01-19T13:44:03.095Z,95103.47
2023-01-19T13:46:33.540Z,95110.28
2023-01-19T13:49:06.229Z,95105.38
2023-01-19T13:51:35.521Z,95098.94
2023-01-19T13:54:03.704Z,95103.25
2023-01-19T13:56:31.680Z,95112.28
2023-01-19T13:59:09.683Z,95108.81
2023-01-19T14:01:39.559Z,95112.78
2023-01-19T14:04:17.241Z,95111.81
2023-01-19T14:06:49.791Z,95111.97
2023-01-19T14:09:20.929Z,95120.06
2023-01-19T14:12:06.704Z,95117.69
2023-01-19T14:14:34.914Z,95106.53
2023-01-19T14:17:02.864Z,95114.69
2023-01-19T14:19:31.024Z,95121.44
2023-01-19T14:22:02.722Z,95127.59
2023-01-19T14:24:33.132Z,95122.16
2023-01-19T14:27:19.871Z,95122.78
2023-01-19T14:29:50.615Z,95126.41
2023-01-19T14:32:20.900Z,95128.44
2023-01-19T14:34:51.252Z,95122.47
2023-01-19T14:37:24.541Z,95128.53
2023-01-19T14:39:57.578Z,95120.81
2023-01-19T14:42:29.443Z,95126.25
2023-01-19T14:45:01.820Z,95126.25
2023-01-19T14:47:38.294Z,95115.72
2023-01-19T14:50:18.946Z,95125.28
2023-01-19T14:52:55.854Z,95118.97
2023-01-19T14:55:30.054Z,95115.00
2023-01-19T14:57:57.949Z,95122.16
2023-01-19T15:00:27.123Z,95123.47
2023-01-19T15:02:55.183Z,95130.31
2023-01-19T15:05:24.717Z,95118.56
2023-01-19T15:07:54.146Z,95120.56
2023-01-19T15:10:24.865Z,95128.53
2023-01-19T15:12:55.821Z,95119.75
2023-01-19T15:15:30.408Z,95123.41
2023-01-19T15:17:59.608Z,95132.22
2023-01-19T15:20:27.648Z,95131.44
2023-01-19T15:22:56.956Z,95130.66
2023-01-19T15:25:26.679Z,95129.88
2023-01-19T15:27:59.690Z,95126.88
2023-01-19T15:30:31.004Z,95133.44
2023-01-19T15:32:59.106Z,95136.75
2023-01-19T15:35:27.353Z,95142.06
2023-01-19T15:37:56.728Z,95145.31
2023-01-19T15:40:24.992Z,95137.16
2023-01-19T15:42:52.838Z,95147.50
2023-01-19T15:45:36.291Z,95144.53
2023-01-19T15:48:06.686Z,95151.22
2023-01-19T15:50:37.590Z,95148.94
2023-01-19T15:53:07.369Z,95145.44
2023-01-19T15:55:35.272Z,95150.50
2023-01-19T15:58:03.125Z,95159.38
2023-01-19T16:00:35.565Z,95149.88
2023-01-19T16:03:04.684Z,95141.50
2023-01-19T16:05:42.672Z,95154.38
2023-01-19T16:08:13.037Z,95153.66
2023-01-19T16:10:41.755Z,95145.06
2023-01-19T16:13:10.528Z,95142.09
2023-01-19T16:15:39.656Z,95152.50
2023-01-19T16:18:07.913Z,95144.47
2023-01-19T16:20:35.792Z,95149.78
2023-01-19T16:23:19.040Z,95153.22
2023-01-19T16:25:57.107Z,95153.75
2023-01-19T16:28:25.399Z,95145.50
2023-01-19T16:30:53.984Z,95154.38
2023-01-19T16:33:22.081Z,95154.44
2023-01-19T16:35:50.260Z,95152.53
2023-01-19T16:38:18.302Z,95156.72
2023-01-19T16:40:50.612Z,95154.78
2023-01-19T16:43:18.650Z,95153.31
2023-01-19T16:46:00.816Z,95150.22
2023-01-19T16:48:29.454Z,95163.31
2023-01-19T16:51:02.696Z,95165.06
2023-01-19T16:53:35.481Z,95158.84
2023-01-19T16:56:07.551Z,95158.75
2023-01-19T16:58:37.498Z,95163.94
2023-01-19T17:01:11.180Z,95174.28
2023-01-19T17:03:39.514Z,95162.16
2023-01-19T17:06:08.587Z,95164.19
2023-01-19T17:08:37.332Z,95161.00
2023-01-19T17:11:12.613Z,95160.94
2023-01-19T17:13:40.841Z,95163.31
2023-01-19T17:16:09.404Z,95169.16
2023-01-19T17:18:38.797Z,95173.09
2023-01-19T17:21:09.207Z,95167.84
2023-01-19T17:23:38.169Z,95171.47
2023-01-19T17:26:06.694Z,95178.03
2023-01-19T17:28:37.576Z,95176.72
2023-01-19T17:31:06.574Z,95175.44
2023-01-19T17:33:35.390Z,95182.25
2023-01-19T17:36:04.305Z,95177.06
2023-01-19T17:38:32.195Z,95185.84
2023-01-19T17:41:00.261Z,95186.47
2023-01-19T17:43:28.190Z,95196.47
2023-01-19T17:45:57.547Z,95189.13
2023-01-19T17:48:25.415Z,95188.06
2023-01-19T17:50:54.181Z,95183.97
2023-01-19T17:53:22.123Z,95191.66
2023-01-19T17:55:50.032Z,95190.53
2023-01-19T17:58:17.879Z,95193.06
2023-01-19T18:00:45.865Z,95186.13
2023-01-19T18:03:15.191Z,95185.34
2023-01-19T18:05:43.165Z,95184.03
2023-01-19T18:08:11.077Z,95191.31
2023-01-19T18:10:38.986Z,95189.66
2023-01-19T18:13:06.883Z,95187.19
2023-01-19T18:15:34.778Z,95183.75
2023-01-19T18:18:02.680Z,95189.13
2023-01-19T18:20:32.526Z,95181.31
2023-01-19T18:23:00.427Z,95195.25
2023-01-19T18:25:28.315Z,95185.78
2023-01-19T18:27:56.211Z,95185.78
2023-01-19T18:30:24.372Z,95190.09
2023-01-19T18:32:52.577Z,95175.59
2023-01-19T18:35:20.614Z,95181.03
2023-01-19T18:37:49.995Z,95186.06
2023-01-19T18:40:18.516Z,95181.28
2023-01-19T18:42:46.773Z,95175.44
2023-01-19T18:45:14.771Z,95178.25
2023-01-19T18:47:42.771Z,95183.69
2023-01-19T18:50:14.085Z,95192.28
2023-01-19T18:52:42.239Z,95186.84
2023-01-19T18:55:11.694Z,95182.72
2023-01-19T18:57:39.632Z,95183.34
2023-01-19T19:00:08.691Z,95177.44
2023-01-19T19:02:36.635Z,95181.13
2023-01-19T19:05:04.958Z,95174.44
2023-01-19T19:07:33.435Z,95166.28
2023-01-19T19:10:01.372Z,95178.88
2023-01-19T19:12:30.723Z,95172.72
2023-01-19T19:14:58.689Z,95182.06
2023-01-19T19:17:26.620Z,95191.19
2023-01-19T19:19:54.736Z,95174.97
2023-01-19T19:22:24.813Z,95185.41
2023-01-19T19:24:53.524Z,95188.03
2023-01-19T19:27:21.435Z,95182.88
2023-01-19T19:29:50.663Z,95191.78
2023-01-19T19:32:20.528Z,95190.28
2023-01-19T19:34:50.484Z,95185.03
2023-01-19T19:37:18.511Z,95195.00
2023-01-19T19:39:46.407Z,95188.38
2023-01-19T19:42:17.151Z,95194.94
2023-01-19T19:44:45.088Z,95195.81
2023-01-19T19:47:14.454Z,95199.69
2023-01-19T19:49:42.332Z,95195.44
2023-01-19T19:52:10.258Z,95198.38
2023-01-19T19:54:38.562Z,95205.63
2023-01-19T19:57:06.471Z,95197.91
2023-01-19T19:59:34.461Z,95198.28
2023-01-19T20:02:02.414Z,95199.31
2023-01-19T20:04:31.866Z,95202.91
2023-01-19T20:07:00.235Z,95195.44
2023-01-19T20:09:28.426Z,95204.38
2023-01-19T20:11:56.832Z,95214.44
2023-01-19T20:14:24.903Z,95219.47
2023-01-19T20:16:54.332Z,95214.88
2023-01-19T20:19:22.456Z,95209.63
2023-01-19T20:21:52.266Z,95205.69
2023-01-19T20:24:21.766Z,95209.16
2023-01-19T20:26:52.484Z,95217.28
2023-01-19T20:29:21.682Z,95221.69
2023-01-19T20:31:52.288Z,95217.16
2023-01-19T20:34:22.665Z,95220.09
2023-01-19T20:36:54.000Z,95224.19
2023-01-19T20:39:23.923Z,95214.06
2023-01-19T20:41:52.612Z,95215.41
2023-01-19T20:44:23.521Z,95224.81
2023-01-19T20:46:52.183Z,95216.38
2023-01-19T20:49:20.320Z,95227.69
2023-01-19T20:51:48.370Z,95219.56
2023-01-19T20:54:20.421Z,95230.28
2023-01-19T20:56:48.953Z,95218.19
2023-01-19T20:59:16.980Z,95229.94
2023-01-19T21:01:45.489Z,95222.66
2023-01-19T21:04:13.893Z,95225.19
2023-01-19T21:06:42.629Z,95228.03
2023-01-19T21:09:11.339Z,95217.78
2023-01-19T21:11:40.994Z,95218.22
2023-01-19T21:14:08.991Z,95227.16
2023-01-19T21:16:37.424Z,95228.16
2023-01-19T21:19:06.541Z,95216.19
2023-01-19T21:21:34.533Z,95234.72
2023-01-19T21:24:04.036Z,95235.38
2023-01-19T21:26:33.564Z,95226.16
2023-01-19T21:29:04.114Z,95236.41
2023-01-19T21:31:32.398Z,95222.19
2023-01-19T21:34:00.681Z,95228.72
2023-01-19T21:36:28.734Z,95232.66
2023-01-19T21:39:00.513Z,95228.81
2023-01-19T21:41:29.909Z,95232.00
2023-01-19T21:43:58.540Z,95236.63
2023-01-19T21:46:29.459Z,95230.06
2023-01-19T21:48:58.154Z,95231.19
2023-01-19T21:51:26.300Z,95242.25
2023-01-19T21:53:56.050Z,95235.69
2023-01-19T21:56:23.986Z,95232.97
2023-01-19T21:58:51.980Z,95237.28
2023-01-19T22:01:20.769Z,95243.94
2023-01-19T22:03:50.585Z,95230.34
2023-01-19T22:06:18.477Z,95239.28
2023-01-19T22:09:13.078Z,95232.53
2023-01-19T22:11:41.017Z,95232.09
2023-01-19T22:14:08.952Z,95246.13
2023-01-19T22:16:36.936Z,95242.72
2023-01-19T22:19:08.134Z,95241.31
2023-01-19T22:21:36.930Z,95240.88
2023-01-19T22:24:06.703Z,95245.34
2023-01-19T22:26:36.884Z,95240.50
2023-01-19T22:29:11.019Z,95250.06
2023-01-19T22:31:40.636Z,95244.47
2023-01-19T22:34:10.876Z,95245.19
2023-01-19T22:36:39.508Z,95243.94
2023-01-19T22:39:10.461Z,95246.56
2023-01-19T22:41:40.750Z,95251.03
2023-01-19T22:44:11.973Z,95255.81
2023-01-19T22:46:40.116Z,95249.03
2023-01-19T22:49:13.716Z,95253.34
2023-01-19T22:51:42.508Z,95260.78
2023-01-19T22:54:11.321Z,95251.50
2023-01-19T22:56:40.881Z,95256.84
2023-01-19T22:59:09.751Z,95262.53
2023-01-19T23:01:39.904Z,95252.78
2023-01-19T23:04:13.211Z,95257.19
2023-01-19T23:06:41.099Z,95257.66
2023-01-19T23:09:13.124Z,95250.38
2023-01-19T23:11:43.317Z,95251.16
2023-01-19T23:14:16.933Z,95256.59
2023-01-19T23:16:44.922Z,95263.66
2023-01-19T23:19:16.987Z,95257.59
2023-01-19T23:21:45.949Z,95263.13
2023-01-19T23:24:13.804Z,95254.28
2023-01-19T23:26:41.663Z,95250.78
2023-01-19T23:29:13.136Z,95262.88
2023-01-19T23:31:44.659Z,95260.16
2023-01-19T23:34:15.243Z,95262.19
2023-01-19T23:36:44.429Z,95266.47
2023-01-19T23:39:15.318Z,95268.06
2023-01-19T23:41:43.589Z,95251.31
2023-01-19T23:44:11.510Z,95271.34
2023-01-19T23:46:39.905Z,95273.97
2023-01-19T23:49:07.761Z,95275.88
2023-01-19T23:51:37.010Z,95281.31
2023-01-19T23:54:05.126Z,95272.13
2023-01-19T23:56:35.508Z,95278.34
2023-01-19T23:59:05.591Z,95278.53
